sensor_id;sensor_type;location;lat;lon;timestamp;P1;durP1;ratioP1;P2;durP2;ratioP2
31010;SDS011;26395;53.412;19.598;2023-02-28T00:13:43;108.00;;;38.50;;
31010;SDS011;26395;53.412;19.598;2023-02-28T00:28:52;110.60;;;36.10;;
31010;SDS011;26395;53.412;19.598;2023-02-28T00:43:55;129.10;;;40.80;;
31010;SDS011;26395;53.412;19.598;2023-02-28T00:58:59;72.90;;;25.70;;
31010;SDS011;26395;53.412;19.598;2023-02-28T01:14:02;114.60;;;34.10;;
31010;SDS011;26395;53.412;19.598;2023-02-28T01:29:06;105.50;;;33.60;;
31010;SDS011;26395;53.412;19.598;2023-02-28T01:59:54;68.90;;;23.30;;
31010;SDS011;26395;53.412;19.598;2023-02-28T02:15:05;202.70;;;64.00;;
31010;SDS011;26395;53.412;19.598;2023-02-28T02:46:19;182.00;;;67.80;;
31010;SDS011;26395;53.412;19.598;2023-02-28T03:01:27;192.20;;;64.50;;
31010;SDS011;26395;53.412;19.598;2023-02-28T03:31:52;75.70;;;27.50;;
31010;SDS011;26395;53.412;19.598;2023-02-28T04:02:05;69.90;;;29.70;;
31010;SDS011;26395;53.412;19.598;2023-02-28T04:17:09;61.50;;;24.60;;
31010;SDS011;26395;53.412;19.598;2023-02-28T04:32:12;70.50;;;29.00;;
31010;SDS011;26395;53.412;19.598;2023-02-28T04:47:16;67.80;;;27.20;;
31010;SDS011;26395;53.412;19.598;2023-02-28T05:02:19;59.40;;;24.30;;
31010;SDS011;26395;53.412;19.598;2023-02-28T05:17:24;117.80;;;43.10;;
31010;SDS011;26395;53.412;19.598;2023-02-28T05:32:30;153.00;;;60.20;;
31010;SDS011;26395;53.412;19.598;2023-02-28T05:47:33;148.40;;;58.30;;
31010;SDS011;26395;53.412;19.598;2023-02-28T06:02:38;137.30;;;56.30;;
31010;SDS011;26395;53.412;19.598;2023-02-28T06:17:43;170.70;;;70.70;;
31010;SDS011;26395;53.412;19.598;2023-02-28T06:32:47;253.20;;;109.70;;
31010;SDS011;26395;53.412;19.598;2023-02-28T06:47:52;299.10;;;120.10;;
31010;SDS011;26395;53.412;19.598;2023-02-28T07:02:56;330.70;;;136.40;;
31010;SDS011;26395;53.412;19.598;2023-02-28T07:17:59;416.10;;;160.10;;
31010;SDS011;26395;53.412;19.598;2023-02-28T07:33:03;188.60;;;82.40;;
31010;SDS011;26395;53.412;19.598;2023-02-28T07:48:07;236.40;;;99.50;;
31010;SDS011;26395;53.412;19.598;2023-02-28T08:03:13;147.00;;;65.80;;
31010;SDS011;26395;53.412;19.598;2023-02-28T08:18:19;105.60;;;48.70;;
31010;SDS011;26395;53.412;19.598;2023-02-28T08:33:23;69.00;;;32.00;;
31010;SDS011;26395;53.412;19.598;2023-02-28T08:48:27;49.60;;;22.70;;
31010;SDS011;26395;53.412;19.598;2023-02-28T09:03:33;45.50;;;23.30;;
31010;SDS011;26395;53.412;19.598;2023-02-28T09:18:37;32.70;;;13.90;;
31010;SDS011;26395;53.412;19.598;2023-02-28T09:33:42;10.60;;;4.70;;
31010;SDS011;26395;53.412;19.598;2023-02-28T09:48:45;7.80;;;5.00;;
31010;SDS011;26395;53.412;19.598;2023-02-28T10:03:55;26.60;;;12.50;;
31010;SDS011;26395;53.412;19.598;2023-02-28T10:19:09;19.00;;;9.30;;
31010;SDS011;26395;53.412;19.598;2023-02-28T10:34:35;16.20;;;8.80;;
31010;SDS011;26395;53.412;19.598;2023-02-28T10:49:38;14.40;;;7.60;;
31010;SDS011;26395;53.412;19.598;2023-02-28T11:04:50;15.50;;;8.00;;
31010;SDS011;26395;53.412;19.598;2023-02-28T11:19:58;12.80;;;7.10;;
31010;SDS011;26395;53.412;19.598;2023-02-28T12:05:53;16.00;;;6.40;;
31010;SDS011;26395;53.412;19.598;2023-02-28T12:37:15;45.70;;;23.20;;
31010;SDS011;26395;53.412;19.598;2023-02-28T12:52:31;31.10;;;15.50;;
31010;SDS011;26395;53.412;19.598;2023-02-28T13:38:45;42.40;;;22.20;;
31010;SDS011;26395;53.412;19.598;2023-02-28T13:54:07;16.30;;;10.50;;
31010;SDS011;26395;53.412;19.598;2023-02-28T14:09:32;94.00;;;45.90;;
31010;SDS011;26395;53.412;19.598;2023-02-28T14:39:44;17.80;;;11.20;;
31010;SDS011;26395;53.412;19.598;2023-02-28T14:54:52;25.30;;;13.80;;
31010;SDS011;26395;53.412;19.598;2023-02-28T15:10:18;262.20;;;139.80;;
31010;SDS011;26395;53.412;19.598;2023-02-28T15:25:24;62.40;;;38.40;;
31010;SDS011;26395;53.412;19.598;2023-02-28T15:40:29;44.90;;;25.60;;
31010;SDS011;26395;53.412;19.598;2023-02-28T15:55:45;120.80;;;56.00;;
31010;SDS011;26395;53.412;19.598;2023-02-28T16:10:56;27.40;;;13.70;;
31010;SDS011;26395;53.412;19.598;2023-02-28T16:25:59;265.50;;;117.00;;
31010;SDS011;26395;53.412;19.598;2023-02-28T16:41:03;548.00;;;241.10;;
31010;SDS011;26395;53.412;19.598;2023-02-28T16:56:15;582.70;;;223.20;;
31010;SDS011;26395;53.412;19.598;2023-02-28T17:11:23;129.90;;;51.40;;
31010;SDS011;26395;53.412;19.598;2023-02-28T17:26:28;136.20;;;53.30;;
31010;SDS011;26395;53.412;19.598;2023-02-28T17:41:40;329.00;;;132.70;;
31010;SDS011;26395;53.412;19.598;2023-02-28T17:56:45;87.60;;;37.00;;
31010;SDS011;26395;53.412;19.598;2023-02-28T18:11:50;154.20;;;61.30;;
31010;SDS011;26395;53.412;19.598;2023-02-28T18:26:55;126.00;;;53.00;;
31010;SDS011;26395;53.412;19.598;2023-02-28T18:41:59;147.60;;;56.60;;
31010;SDS011;26395;53.412;19.598;2023-02-28T18:57:03;74.20;;;32.80;;
31010;SDS011;26395;53.412;19.598;2023-02-28T19:12:07;128.00;;;49.60;;
31010;SDS011;26395;53.412;19.598;2023-02-28T19:27:11;157.70;;;63.40;;
31010;SDS011;26395;53.412;19.598;2023-02-28T19:42:16;179.40;;;65.60;;
31010;SDS011;26395;53.412;19.598;2023-02-28T19:57:21;407.20;;;147.70;;
31010;SDS011;26395;53.412;19.598;2023-02-28T20:12:25;213.30;;;80.90;;
31010;SDS011;26395;53.412;19.598;2023-02-28T20:27:29;190.50;;;73.80;;
31010;SDS011;26395;53.412;19.598;2023-02-28T20:42:34;173.50;;;63.40;;
31010;SDS011;26395;53.412;19.598;2023-02-28T20:57:38;191.90;;;65.30;;
31010;SDS011;26395;53.412;19.598;2023-02-28T21:12:42;100.80;;;38.40;;
31010;SDS011;26395;53.412;19.598;2023-02-28T21:27:46;209.60;;;67.60;;
31010;SDS011;26395;53.412;19.598;2023-02-28T21:42:51;135.80;;;54.10;;
31010;SDS011;26395;53.412;19.598;2023-02-28T21:57:54;133.10;;;50.20;;
31010;SDS011;26395;53.412;19.598;2023-02-28T22:12:58;135.20;;;45.90;;
31010;SDS011;26395;53.412;19.598;2023-02-28T22:28:03;58.40;;;25.30;;
31010;SDS011;26395;53.412;19.598;2023-02-28T22:43:07;76.60;;;28.90;;
31010;SDS011;26395;53.412;19.598;2023-02-28T22:58:10;61.20;;;26.60;;
31010;SDS011;26395;53.412;19.598;2023-02-28T23:13:13;62.80;;;25.80;;
31010;SDS011;26395;53.412;19.598;2023-02-28T23:28:17;56.10;;;22.90;;
31010;SDS011;26395;53.412;19.598;2023-02-28T23:43:20;73.00;;;29.30;;
31010;SDS011;26395;53.412;19.598;2023-02-28T23:58:26;63.20;;;24.20;;
